sensor_id;sensor_type;location;lat;lon;timestamp;P1;durP1;ratioP1;P2;durP2;ratioP2
21330;SDS011;10824;51.632;4.950;2022-08-19T00:01:50;5.28;;;4.05;;
21330;SDS011;10824;51.632;4.950;2022-08-19T00:04:23;5.40;;;3.40;;
21330;SDS011;10824;51.632;4.950;2022-08-19T00:06:52;7.32;;;4.22;;
21330;SDS011;10824;51.632;4.950;2022-08-19T00:09:20;6.85;;;3.97;;
21330;SDS011;10824;51.632;4.950;2022-08-19T00:11:49;7.13;;;4.45;;
21330;SDS011;10824;51.632;4.950;2022-08-19T00:14:18;11.50;;;4.57;;
21330;SDS011;10824;51.632;4.950;2022-08-19T00:16:47;7.07;;;4.40;;
21330;SDS011;10824;51.632;4.950;2022-08-19T00:19:15;8.95;;;4.65;;
21330;SDS011;10824;51.632;4.950;2022-08-19T00:21:43;11.05;;;5.35;;
21330;SDS011;10824;51.632;4.950;2022-08-19T00:24:11;10.20;;;4.88;;
21330;SDS011;10824;51.632;4.950;2022-08-19T00:26:43;8.93;;;5.20;;
21330;SDS011;10824;51.632;4.950;2022-08-19T00:29:13;10.85;;;5.30;;
21330;SDS011;10824;51.632;4.950;2022-08-19T00:31:43;10.27;;;5.55;;
21330;SDS011;10824;51.632;4.950;2022-08-19T00:34:12;9.85;;;5.18;;
21330;SDS011;10824;51.632;4.950;2022-08-19T00:36:40;12.05;;;6.03;;
21330;SDS011;10824;51.632;4.950;2022-08-19T00:39:09;9.95;;;5.10;;
21330;SDS011;10824;51.632;4.950;2022-08-19T00:41:37;11.60;;;5.63;;
21330;SDS011;10824;51.632;4.950;2022-08-19T00:44:06;9.60;;;5.05;;
21330;SDS011;10824;51.632;4.950;2022-08-19T00:46:33;10.07;;;4.82;;
21330;SDS011;10824;51.632;4.950;2022-08-19T00:49:05;9.45;;;5.70;;
21330;SDS011;10824;51.632;4.950;2022-08-19T00:51:36;10.40;;;5.90;;
21330;SDS011;10824;51.632;4.950;2022-08-19T00:54:03;10.32;;;5.30;;
21330;SDS011;10824;51.632;4.950;2022-08-19T00:56:30;10.88;;;5.80;;
21330;SDS011;10824;51.632;4.950;2022-08-19T00:58:58;12.63;;;5.78;;
21330;SDS011;10824;51.632;4.950;2022-08-19T01:01:25;9.18;;;4.88;;
21330;SDS011;10824;51.632;4.950;2022-08-19T01:03:52;9.90;;;5.25;;
21330;SDS011;10824;51.632;4.950;2022-08-19T01:06:24;10.65;;;5.85;;
21330;SDS011;10824;51.632;4.950;2022-08-19T01:08:54;10.93;;;5.43;;
21330;SDS011;10824;51.632;4.950;2022-08-19T01:11:21;10.32;;;4.97;;
21330;SDS011;10824;51.632;4.950;2022-08-19T01:13:48;11.32;;;5.20;;
21330;SDS011;10824;51.632;4.950;2022-08-19T01:16:18;12.57;;;5.53;;
21330;SDS011;10824;51.632;4.950;2022-08-19T01:18:48;12.05;;;5.97;;
21330;SDS011;10824;51.632;4.950;2022-08-19T01:21:31;9.60;;;5.50;;
21330;SDS011;10824;51.632;4.950;2022-08-19T01:24:08;10.85;;;5.75;;
21330;SDS011;10824;51.632;4.950;2022-08-19T01:26:39;8.25;;;4.90;;
21330;SDS011;10824;51.632;4.950;2022-08-19T01:29:11;9.73;;;5.13;;
21330;SDS011;10824;51.632;4.950;2022-08-19T01:31:40;10.18;;;6.15;;
21330;SDS011;10824;51.632;4.950;2022-08-19T01:34:07;10.90;;;5.72;;
21330;SDS011;10824;51.632;4.950;2022-08-19T01:36:35;10.50;;;5.80;;
21330;SDS011;10824;51.632;4.950;2022-08-19T01:39:06;8.03;;;4.90;;
21330;SDS011;10824;51.632;4.950;2022-08-19T01:41:37;9.77;;;5.05;;
21330;SDS011;10824;51.632;4.950;2022-08-19T01:44:04;8.60;;;4.60;;
21330;SDS011;10824;51.632;4.950;2022-08-19T01:46:43;7.82;;;4.93;;
21330;SDS011;10824;51.632;4.950;2022-08-19T01:49:11;10.02;;;5.68;;
21330;SDS011;10824;51.632;4.950;2022-08-19T01:51:38;10.98;;;4.47;;
21330;SDS011;10824;51.632;4.950;2022-08-19T01:54:09;8.13;;;4.60;;
21330;SDS011;10824;51.632;4.950;2022-08-19T01:56:37;10.02;;;4.57;;
21330;SDS011;10824;51.632;4.950;2022-08-19T01:59:08;9.10;;;5.28;;
21330;SDS011;10824;51.632;4.950;2022-08-19T02:01:41;9.35;;;4.90;;
21330;SDS011;10824;51.632;4.950;2022-08-19T02:04:08;8.13;;;4.57;;
21330;SDS011;10824;51.632;4.950;2022-08-19T02:06:36;7.38;;;4.50;;
21330;SDS011;10824;51.632;4.950;2022-08-19T02:09:04;8.40;;;5.07;;
21330;SDS011;10824;51.632;4.950;2022-08-19T02:11:33;11.85;;;4.97;;
21330;SDS011;10824;51.632;4.950;2022-08-19T02:14:05;9.52;;;5.43;;
21330;SDS011;10824;51.632;4.950;2022-08-19T02:16:33;10.25;;;5.38;;
21330;SDS011;10824;51.632;4.950;2022-08-19T02:19:04;9.30;;;5.45;;
21330;SDS011;10824;51.632;4.950;2022-08-19T02:21:31;10.80;;;5.45;;
21330;SDS011;10824;51.632;4.950;2022-08-19T02:23:59;11.25;;;5.90;;
21330;SDS011;10824;51.632;4.950;2022-08-19T02:26:26;14.93;;;6.50;;
21330;SDS011;10824;51.632;4.950;2022-08-19T02:28:54;12.13;;;6.78;;
21330;SDS011;10824;51.632;4.950;2022-08-19T02:31:23;11.25;;;6.47;;
21330;SDS011;10824;51.632;4.950;2022-08-19T02:33:51;13.02;;;6.85;;
21330;SDS011;10824;51.632;4.950;2022-08-19T02:36:22;13.97;;;6.87;;
21330;SDS011;10824;51.632;4.950;2022-08-19T02:38:51;18.80;;;8.55;;
21330;SDS011;10824;51.632;4.950;2022-08-19T02:41:22;17.40;;;8.27;;
21330;SDS011;10824;51.632;4.950;2022-08-19T02:43:53;17.90;;;8.95;;
21330;SDS011;10824;51.632;4.950;2022-08-19T02:46:41;19.15;;;8.02;;
21330;SDS011;10824;51.632;4.950;2022-08-19T02:49:09;18.40;;;9.05;;
21330;SDS011;10824;51.632;4.950;2022-08-19T02:51:38;19.90;;;9.43;;
21330;SDS011;10824;51.632;4.950;2022-08-19T02:54:08;18.55;;;9.60;;
21330;SDS011;10824;51.632;4.950;2022-08-19T02:56:37;18.73;;;9.10;;
21330;SDS011;10824;51.632;4.950;2022-08-19T02:59:06;18.75;;;8.85;;
21330;SDS011;10824;51.632;4.950;2022-08-19T03:01:36;18.15;;;9.38;;
21330;SDS011;10824;51.632;4.950;2022-08-19T03:04:07;17.65;;;9.23;;
21330;SDS011;10824;51.632;4.950;2022-08-19T03:06:36;19.52;;;9.63;;
21330;SDS011;10824;51.632;4.950;2022-08-19T03:11:34;25.13;;;12.23;;
21330;SDS011;10824;51.632;4.950;2022-08-19T03:14:02;24.05;;;10.35;;
21330;SDS011;10824;51.632;4.950;2022-08-19T03:16:34;21.85;;;10.55;;
21330;SDS011;10824;51.632;4.950;2022-08-19T03:19:09;18.77;;;9.38;;
21330;SDS011;10824;51.632;4.950;2022-08-19T03:21:36;22.30;;;10.25;;
21330;SDS011;10824;51.632;4.950;2022-08-19T03:24:05;28.13;;;11.43;;
21330;SDS011;10824;51.632;4.950;2022-08-19T03:26:34;22.00;;;10.13;;
21330;SDS011;10824;51.632;4.950;2022-08-19T03:29:05;23.77;;;10.18;;
21330;SDS011;10824;51.632;4.950;2022-08-19T03:31:34;20.00;;;9.45;;
21330;SDS011;10824;51.632;4.950;2022-08-19T03:34:19;19.35;;;9.60;;
21330;SDS011;10824;51.632;4.950;2022-08-19T03:36:49;20.63;;;9.70;;
21330;SDS011;10824;51.632;4.950;2022-08-19T03:39:17;19.88;;;10.30;;
21330;SDS011;10824;51.632;4.950;2022-08-19T03:41:46;20.77;;;8.98;;
21330;SDS011;10824;51.632;4.950;2022-08-19T03:44:36;20.05;;;9.50;;
21330;SDS011;10824;51.632;4.950;2022-08-19T03:47:04;19.45;;;8.88;;
21330;SDS011;10824;51.632;4.950;2022-08-19T03:49:32;21.33;;;9.80;;
21330;SDS011;10824;51.632;4.950;2022-08-19T03:52:05;21.02;;;9.55;;
21330;SDS011;10824;51.632;4.950;2022-08-19T03:54:34;20.88;;;9.30;;
21330;SDS011;10824;51.632;4.950;2022-08-19T03:57:04;18.38;;;8.90;;
21330;SDS011;10824;51.632;4.950;2022-08-19T03:59:32;22.20;;;9.30;;
21330;SDS011;10824;51.632;4.950;2022-08-19T04:02:03;18.67;;;9.02;;
21330;SDS011;10824;51.632;4.950;2022-08-19T04:04:36;26.55;;;10.93;;
21330;SDS011;10824;51.632;4.950;2022-08-19T04:07:04;25.02;;;10.73;;
21330;SDS011;10824;51.632;4.950;2022-08-19T04:09:32;19.83;;;9.18;;
21330;SDS011;10824;51.632;4.950;2022-08-19T04:12:03;25.53;;;11.97;;
21330;SDS011;10824;51.632;4.950;2022-08-19T04:14:31;28.55;;;13.30;;
21330;SDS011;10824;51.632;4.950;2022-08-19T04:17:00;24.42;;;10.60;;
21330;SDS011;10824;51.632;4.950;2022-08-19T04:19:32;19.63;;;10.52;;
21330;SDS011;10824;51.632;4.950;2022-08-19T04:22:01;23.35;;;11.13;;
21330;SDS011;10824;51.632;4.950;2022-08-19T04:24:29;23.95;;;10.15;;
21330;SDS011;10824;51.632;4.950;2022-08-19T04:26:56;25.63;;;12.10;;
21330;SDS011;10824;51.632;4.950;2022-08-19T04:29:25;22.63;;;11.18;;
21330;SDS011;10824;51.632;4.950;2022-08-19T04:31:54;25.20;;;11.45;;
21330;SDS011;10824;51.632;4.950;2022-08-19T04:34:23;22.42;;;10.68;;
21330;SDS011;10824;51.632;4.950;2022-08-19T04:36:52;23.50;;;10.77;;
21330;SDS011;10824;51.632;4.950;2022-08-19T04:39:21;25.05;;;10.73;;
21330;SDS011;10824;51.632;4.950;2022-08-19T04:42:15;24.33;;;11.73;;
21330;SDS011;10824;51.632;4.950;2022-08-19T04:45:03;27.65;;;11.85;;
21330;SDS011;10824;51.632;4.950;2022-08-19T04:47:35;25.83;;;11.73;;
21330;SDS011;10824;51.632;4.950;2022-08-19T04:50:23;24.55;;;11.57;;
21330;SDS011;10824;51.632;4.950;2022-08-19T04:52:51;30.17;;;13.18;;
21330;SDS011;10824;51.632;4.950;2022-08-19T04:55:20;24.55;;;10.43;;
21330;SDS011;10824;51.632;4.950;2022-08-19T04:57:47;26.38;;;11.90;;
21330;SDS011;10824;51.632;4.950;2022-08-19T05:00:15;25.02;;;11.13;;
21330;SDS011;10824;51.632;4.950;2022-08-19T05:02:42;24.60;;;11.82;;
21330;SDS011;10824;51.632;4.950;2022-08-19T05:05:09;26.08;;;12.00;;
21330;SDS011;10824;51.632;4.950;2022-08-19T05:07:36;28.48;;;11.48;;
21330;SDS011;10824;51.632;4.950;2022-08-19T05:10:04;30.35;;;12.43;;
21330;SDS011;10824;51.632;4.950;2022-08-19T05:12:32;24.63;;;11.18;;
21330;SDS011;10824;51.632;4.950;2022-08-19T05:15:00;26.02;;;12.77;;
21330;SDS011;10824;51.632;4.950;2022-08-19T05:17:29;24.63;;;10.75;;
21330;SDS011;10824;51.632;4.950;2022-08-19T05:20:04;25.45;;;11.30;;
21330;SDS011;10824;51.632;4.950;2022-08-19T05:22:51;20.67;;;10.65;;
21330;SDS011;10824;51.632;4.950;2022-08-19T05:25:19;22.25;;;10.05;;
21330;SDS011;10824;51.632;4.950;2022-08-19T05:27:47;21.90;;;9.55;;
21330;SDS011;10824;51.632;4.950;2022-08-19T05:30:15;24.77;;;10.25;;
21330;SDS011;10824;51.632;4.950;2022-08-19T05:32:42;19.05;;;9.55;;
21330;SDS011;10824;51.632;4.950;2022-08-19T05:35:10;21.75;;;10.23;;
21330;SDS011;10824;51.632;4.950;2022-08-19T05:37:38;24.67;;;9.68;;
21330;SDS011;10824;51.632;4.950;2022-08-19T05:40:07;21.15;;;9.65;;
21330;SDS011;10824;51.632;4.950;2022-08-19T05:42:35;26.83;;;9.82;;
21330;SDS011;10824;51.632;4.950;2022-08-19T05:45:03;18.63;;;8.98;;
21330;SDS011;10824;51.632;4.950;2022-08-19T05:47:31;22.63;;;10.23;;
21330;SDS011;10824;51.632;4.950;2022-08-19T05:49:58;20.80;;;8.32;;
21330;SDS011;10824;51.632;4.950;2022-08-19T05:52:30;22.50;;;10.23;;
21330;SDS011;10824;51.632;4.950;2022-08-19T05:54:58;26.40;;;9.63;;
21330;SDS011;10824;51.632;4.950;2022-08-19T05:57:25;21.88;;;10.18;;
21330;SDS011;10824;51.632;4.950;2022-08-19T05:59:55;25.77;;;10.32;;
21330;SDS011;10824;51.632;4.950;2022-08-19T06:02:27;20.75;;;10.32;;
21330;SDS011;10824;51.632;4.950;2022-08-19T06:04:57;31.75;;;10.32;;
21330;SDS011;10824;51.632;4.950;2022-08-19T06:07:25;26.90;;;11.05;;
21330;SDS011;10824;51.632;4.950;2022-08-19T06:09:52;30.58;;;12.05;;
21330;SDS011;10824;51.632;4.950;2022-08-19T06:12:29;25.33;;;11.38;;
21330;SDS011;10824;51.632;4.950;2022-08-19T06:15:07;28.05;;;10.35;;
21330;SDS011;10824;51.632;4.950;2022-08-19T06:17:37;26.33;;;10.63;;
21330;SDS011;10824;51.632;4.950;2022-08-19T06:20:08;19.85;;;9.10;;
21330;SDS011;10824;51.632;4.950;2022-08-19T06:22:42;23.85;;;9.00;;
21330;SDS011;10824;51.632;4.950;2022-08-19T06:25:11;21.95;;;9.35;;
21330;SDS011;10824;51.632;4.950;2022-08-19T06:27:40;23.90;;;10.65;;
21330;SDS011;10824;51.632;4.950;2022-08-19T06:30:28;18.50;;;8.57;;
21330;SDS011;10824;51.632;4.950;2022-08-19T06:32:57;22.63;;;8.75;;
21330;SDS011;10824;51.632;4.950;2022-08-19T06:35:24;21.17;;;8.45;;
21330;SDS011;10824;51.632;4.950;2022-08-19T06:37:51;20.05;;;10.68;;
21330;SDS011;10824;51.632;4.950;2022-08-19T06:40:18;22.70;;;8.32;;
21330;SDS011;10824;51.632;4.950;2022-08-19T06:42:46;22.40;;;8.95;;
21330;SDS011;10824;51.632;4.950;2022-08-19T06:45:21;20.35;;;8.05;;
21330;SDS011;10824;51.632;4.950;2022-08-19T06:47:59;23.40;;;9.10;;
21330;SDS011;10824;51.632;4.950;2022-08-19T06:50:26;20.65;;;8.93;;
21330;SDS011;10824;51.632;4.950;2022-08-19T06:52:53;19.48;;;9.65;;
21330;SDS011;10824;51.632;4.950;2022-08-19T06:55:21;27.30;;;9.85;;
21330;SDS011;10824;51.632;4.950;2022-08-19T06:57:49;22.17;;;9.77;;
21330;SDS011;10824;51.632;4.950;2022-08-19T07:00:19;30.80;;;11.55;;
21330;SDS011;10824;51.632;4.950;2022-08-19T07:02:47;27.80;;;11.73;;
21330;SDS011;10824;51.632;4.950;2022-08-19T07:05:24;26.08;;;10.63;;
21330;SDS011;10824;51.632;4.950;2022-08-19T07:07:52;20.63;;;9.40;;
21330;SDS011;10824;51.632;4.950;2022-08-19T07:10:22;21.27;;;9.47;;
21330;SDS011;10824;51.632;4.950;2022-08-19T07:12:51;23.65;;;9.82;;
21330;SDS011;10824;51.632;4.950;2022-08-19T07:15:18;23.23;;;9.68;;
21330;SDS011;10824;51.632;4.950;2022-08-19T07:17:48;23.08;;;9.50;;
21330;SDS011;10824;51.632;4.950;2022-08-19T07:20:21;23.02;;;10.13;;
21330;SDS011;10824;51.632;4.950;2022-08-19T07:22:53;23.25;;;9.90;;
21330;SDS011;10824;51.632;4.950;2022-08-19T07:25:21;22.65;;;9.73;;
21330;SDS011;10824;51.632;4.950;2022-08-19T07:27:57;22.95;;;9.73;;
21330;SDS011;10824;51.632;4.950;2022-08-19T07:30:27;24.92;;;10.52;;
21330;SDS011;10824;51.632;4.950;2022-08-19T07:32:56;24.75;;;11.05;;
21330;SDS011;10824;51.632;4.950;2022-08-19T07:35:23;21.08;;;9.48;;
21330;SDS011;10824;51.632;4.950;2022-08-19T07:37:51;25.25;;;10.23;;
21330;SDS011;10824;51.632;4.950;2022-08-19T07:40:19;23.38;;;10.15;;
21330;SDS011;10824;51.632;4.950;2022-08-19T07:42:46;19.67;;;10.13;;
21330;SDS011;10824;51.632;4.950;2022-08-19T07:45:13;20.85;;;9.70;;
21330;SDS011;10824;51.632;4.950;2022-08-19T07:47:42;23.52;;;11.15;;
21330;SDS011;10824;51.632;4.950;2022-08-19T07:50:16;23.45;;;10.93;;
21330;SDS011;10824;51.632;4.950;2022-08-19T07:52:45;28.55;;;11.05;;
21330;SDS011;10824;51.632;4.950;2022-08-19T07:55:15;24.55;;;10.52;;
21330;SDS011;10824;51.632;4.950;2022-08-19T07:58:04;23.58;;;10.10;;
21330;SDS011;10824;51.632;4.950;2022-08-19T08:00:32;25.25;;;10.27;;
21330;SDS011;10824;51.632;4.950;2022-08-19T08:03:00;18.75;;;8.75;;
21330;SDS011;10824;51.632;4.950;2022-08-19T08:05:27;21.92;;;9.27;;
21330;SDS011;10824;51.632;4.950;2022-08-19T08:08:13;17.55;;;8.05;;
21330;SDS011;10824;51.632;4.950;2022-08-19T08:10:59;19.83;;;9.15;;
21330;SDS011;10824;51.632;4.950;2022-08-19T08:13:27;20.42;;;7.82;;
21330;SDS011;10824;51.632;4.950;2022-08-19T08:15:54;20.10;;;7.53;;
21330;SDS011;10824;51.632;4.950;2022-08-19T08:18:23;19.77;;;8.23;;
21330;SDS011;10824;51.632;4.950;2022-08-19T08:20:53;17.05;;;7.93;;
21330;SDS011;10824;51.632;4.950;2022-08-19T08:23:24;16.63;;;7.55;;
21330;SDS011;10824;51.632;4.950;2022-08-19T08:25:53;20.92;;;8.32;;
21330;SDS011;10824;51.632;4.950;2022-08-19T08:28:23;16.70;;;7.38;;
21330;SDS011;10824;51.632;4.950;2022-08-19T08:30:55;20.25;;;7.47;;
21330;SDS011;10824;51.632;4.950;2022-08-19T08:33:24;13.93;;;7.25;;
21330;SDS011;10824;51.632;4.950;2022-08-19T08:36:00;14.70;;;6.82;;
21330;SDS011;10824;51.632;4.950;2022-08-19T08:38:33;13.65;;;7.07;;
21330;SDS011;10824;51.632;4.950;2022-08-19T08:41:28;18.20;;;8.50;;
21330;SDS011;10824;51.632;4.950;2022-08-19T08:44:13;18.15;;;7.18;;
21330;SDS011;10824;51.632;4.950;2022-08-19T08:47:04;13.70;;;6.63;;
21330;SDS011;10824;51.632;4.950;2022-08-19T09:00:17;17.77;;;7.05;;
21330;SDS011;10824;51.632;4.950;2022-08-19T09:02:47;15.57;;;6.63;;
21330;SDS011;10824;51.632;4.950;2022-08-19T09:05:17;11.40;;;4.93;;
21330;SDS011;10824;51.632;4.950;2022-08-19T09:10:40;14.80;;;6.32;;
21330;SDS011;10824;51.632;4.950;2022-08-19T09:13:23;12.82;;;5.50;;
21330;SDS011;10824;51.632;4.950;2022-08-19T09:16:21;12.38;;;5.22;;
21330;SDS011;10824;51.632;4.950;2022-08-19T09:18:57;11.10;;;5.18;;
21330;SDS011;10824;51.632;4.950;2022-08-19T09:21:31;8.60;;;4.30;;
21330;SDS011;10824;51.632;4.950;2022-08-19T09:24:01;14.38;;;5.88;;
21330;SDS011;10824;51.632;4.950;2022-08-19T09:26:31;9.05;;;4.53;;
21330;SDS011;10824;51.632;4.950;2022-08-19T09:29:18;10.10;;;5.03;;
21330;SDS011;10824;51.632;4.950;2022-08-19T09:31:48;7.90;;;4.28;;
21330;SDS011;10824;51.632;4.950;2022-08-19T09:34:16;9.43;;;4.13;;
21330;SDS011;10824;51.632;4.950;2022-08-19T09:36:48;11.68;;;4.78;;
21330;SDS011;10824;51.632;4.950;2022-08-19T09:39:21;10.13;;;4.35;;
21330;SDS011;10824;51.632;4.950;2022-08-19T09:41:49;8.18;;;4.28;;
21330;SDS011;10824;51.632;4.950;2022-08-19T09:44:19;8.90;;;4.32;;
21330;SDS011;10824;51.632;4.950;2022-08-19T09:46:47;11.45;;;5.15;;
21330;SDS011;10824;51.632;4.950;2022-08-19T09:49:15;11.85;;;4.80;;
21330;SDS011;10824;51.632;4.950;2022-08-19T09:51:44;8.55;;;4.85;;
21330;SDS011;10824;51.632;4.950;2022-08-19T09:54:16;11.65;;;4.75;;
21330;SDS011;10824;51.632;4.950;2022-08-19T09:56:50;9.18;;;4.65;;
21330;SDS011;10824;51.632;4.950;2022-08-19T09:59:18;8.98;;;4.15;;
21330;SDS011;10824;51.632;4.950;2022-08-19T10:01:46;10.73;;;4.53;;
21330;SDS011;10824;51.632;4.950;2022-08-19T10:04:13;7.97;;;4.07;;
21330;SDS011;10824;51.632;4.950;2022-08-19T10:06:48;11.77;;;4.70;;
21330;SDS011;10824;51.632;4.950;2022-08-19T10:09:19;9.80;;;3.83;;
21330;SDS011;10824;51.632;4.950;2022-08-19T10:12:00;9.80;;;4.67;;
21330;SDS011;10824;51.632;4.950;2022-08-19T10:14:28;7.43;;;4.53;;
21330;SDS011;10824;51.632;4.950;2022-08-19T10:16:56;8.63;;;4.22;;
21330;SDS011;10824;51.632;4.950;2022-08-19T10:19:24;8.57;;;4.65;;
21330;SDS011;10824;51.632;4.950;2022-08-19T10:21:52;8.73;;;4.47;;
21330;SDS011;10824;51.632;4.950;2022-08-19T10:24:25;8.13;;;3.65;;
21330;SDS011;10824;51.632;4.950;2022-08-19T10:26:54;9.88;;;4.55;;
21330;SDS011;10824;51.632;4.950;2022-08-19T10:29:25;7.93;;;4.43;;
21330;SDS011;10824;51.632;4.950;2022-08-19T10:32:03;12.85;;;8.02;;
21330;SDS011;10824;51.632;4.950;2022-08-19T10:34:36;8.95;;;4.10;;
21330;SDS011;10824;51.632;4.950;2022-08-19T10:37:14;8.93;;;4.20;;
21330;SDS011;10824;51.632;4.950;2022-08-19T10:39:49;14.45;;;5.10;;
21330;SDS011;10824;51.632;4.950;2022-08-19T10:42:17;8.85;;;4.07;;
21330;SDS011;10824;51.632;4.950;2022-08-19T10:44:45;9.23;;;4.93;;
21330;SDS011;10824;51.632;4.950;2022-08-19T10:47:13;6.75;;;3.90;;
21330;SDS011;10824;51.632;4.950;2022-08-19T10:49:51;12.98;;;4.93;;
21330;SDS011;10824;51.632;4.950;2022-08-19T10:52:39;9.15;;;4.68;;
21330;SDS011;10824;51.632;4.950;2022-08-19T10:55:16;11.02;;;4.78;;
21330;SDS011;10824;51.632;4.950;2022-08-19T10:58:09;7.88;;;4.60;;
21330;SDS011;10824;51.632;4.950;2022-08-19T11:00:37;10.25;;;4.93;;
21330;SDS011;10824;51.632;4.950;2022-08-19T11:03:04;11.82;;;5.25;;
21330;SDS011;10824;51.632;4.950;2022-08-19T11:05:35;9.88;;;5.15;;
21330;SDS011;10824;51.632;4.950;2022-08-19T11:08:05;8.30;;;4.97;;
21330;SDS011;10824;51.632;4.950;2022-08-19T11:10:53;10.55;;;4.03;;
21330;SDS011;10824;51.632;4.950;2022-08-19T11:13:27;9.85;;;4.85;;
21330;SDS011;10824;51.632;4.950;2022-08-19T11:15:59;10.23;;;4.50;;
21330;SDS011;10824;51.632;4.950;2022-08-19T11:18:34;10.13;;;4.57;;
21330;SDS011;10824;51.632;4.950;2022-08-19T11:21:10;7.07;;;4.10;;
21330;SDS011;10824;51.632;4.950;2022-08-19T11:23:37;8.27;;;4.30;;
21330;SDS011;10824;51.632;4.950;2022-08-19T11:26:05;8.98;;;4.28;;
21330;SDS011;10824;51.632;4.950;2022-08-19T11:28:32;8.90;;;4.40;;
21330;SDS011;10824;51.632;4.950;2022-08-19T11:30:59;9.95;;;4.70;;
21330;SDS011;10824;51.632;4.950;2022-08-19T11:33:26;12.40;;;5.85;;
21330;SDS011;10824;51.632;4.950;2022-08-19T11:35:53;16.90;;;8.85;;
21330;SDS011;10824;51.632;4.950;2022-08-19T11:38:20;17.90;;;9.80;;
21330;SDS011;10824;51.632;4.950;2022-08-19T11:40:53;19.92;;;10.68;;
21330;SDS011;10824;51.632;4.950;2022-08-19T11:43:25;20.77;;;10.65;;
21330;SDS011;10824;51.632;4.950;2022-08-19T11:46:03;24.48;;;11.80;;
21330;SDS011;10824;51.632;4.950;2022-08-19T11:48:36;22.80;;;10.68;;
21330;SDS011;10824;51.632;4.950;2022-08-19T11:51:08;14.88;;;8.10;;
21330;SDS011;10824;51.632;4.950;2022-08-19T11:53:40;14.80;;;6.68;;
21330;SDS011;10824;51.632;4.950;2022-08-19T11:56:08;15.68;;;7.50;;
21330;SDS011;10824;51.632;4.950;2022-08-19T11:58:38;11.50;;;6.45;;
21330;SDS011;10824;51.632;4.950;2022-08-19T12:01:09;12.77;;;6.07;;
21330;SDS011;10824;51.632;4.950;2022-08-19T12:03:43;11.75;;;5.55;;
21330;SDS011;10824;51.632;4.950;2022-08-19T12:06:14;9.88;;;5.95;;
21330;SDS011;10824;51.632;4.950;2022-08-19T12:08:43;12.07;;;5.60;;
21330;SDS011;10824;51.632;4.950;2022-08-19T12:11:12;15.57;;;7.30;;
21330;SDS011;10824;51.632;4.950;2022-08-19T12:13:40;20.42;;;10.32;;
21330;SDS011;10824;51.632;4.950;2022-08-19T12:16:12;12.02;;;6.05;;
21330;SDS011;10824;51.632;4.950;2022-08-19T12:18:42;11.82;;;5.60;;
21330;SDS011;10824;51.632;4.950;2022-08-19T12:21:13;12.65;;;6.10;;
21330;SDS011;10824;51.632;4.950;2022-08-19T12:23:44;12.80;;;5.80;;
21330;SDS011;10824;51.632;4.950;2022-08-19T12:26:20;10.75;;;6.30;;
21330;SDS011;10824;51.632;4.950;2022-08-19T12:28:48;15.13;;;6.78;;
21330;SDS011;10824;51.632;4.950;2022-08-19T12:31:15;14.88;;;7.82;;
21330;SDS011;10824;51.632;4.950;2022-08-19T12:33:44;13.45;;;7.22;;
21330;SDS011;10824;51.632;4.950;2022-08-19T12:36:13;14.82;;;7.07;;
21330;SDS011;10824;51.632;4.950;2022-08-19T12:38:41;13.93;;;6.72;;
21330;SDS011;10824;51.632;4.950;2022-08-19T12:41:11;14.27;;;6.15;;
21330;SDS011;10824;51.632;4.950;2022-08-19T12:43:40;12.00;;;5.90;;
21330;SDS011;10824;51.632;4.950;2022-08-19T12:46:08;9.95;;;5.68;;
21330;SDS011;10824;51.632;4.950;2022-08-19T12:48:39;9.20;;;4.82;;
21330;SDS011;10824;51.632;4.950;2022-08-19T12:51:13;8.30;;;4.40;;
21330;SDS011;10824;51.632;4.950;2022-08-19T12:53:43;5.82;;;3.60;;
21330;SDS011;10824;51.632;4.950;2022-08-19T12:56:10;6.13;;;3.53;;
21330;SDS011;10824;51.632;4.950;2022-08-19T12:58:41;6.78;;;4.05;;
21330;SDS011;10824;51.632;4.950;2022-08-19T13:01:18;6.57;;;3.97;;
21330;SDS011;10824;51.632;4.950;2022-08-19T13:03:49;8.98;;;4.53;;
21330;SDS011;10824;51.632;4.950;2022-08-19T13:06:18;8.18;;;4.15;;
21330;SDS011;10824;51.632;4.950;2022-08-19T13:08:46;6.07;;;3.80;;
21330;SDS011;10824;51.632;4.950;2022-08-19T13:11:14;7.65;;;3.95;;
21330;SDS011;10824;51.632;4.950;2022-08-19T13:13:44;9.40;;;4.40;;
21330;SDS011;10824;51.632;4.950;2022-08-19T13:16:17;7.25;;;3.70;;
21330;SDS011;10824;51.632;4.950;2022-08-19T13:18:45;7.80;;;3.72;;
21330;SDS011;10824;51.632;4.950;2022-08-19T13:21:13;8.00;;;4.15;;
21330;SDS011;10824;51.632;4.950;2022-08-19T13:23:44;6.88;;;4.22;;
21330;SDS011;10824;51.632;4.950;2022-08-19T13:26:11;6.40;;;3.85;;
21330;SDS011;10824;51.632;4.950;2022-08-19T13:28:39;7.63;;;4.20;;
21330;SDS011;10824;51.632;4.950;2022-08-19T13:31:26;8.52;;;4.63;;
21330;SDS011;10824;51.632;4.950;2022-08-19T13:34:14;6.78;;;3.90;;
21330;SDS011;10824;51.632;4.950;2022-08-19T13:36:42;8.18;;;3.92;;
21330;SDS011;10824;51.632;4.950;2022-08-19T13:39:10;10.18;;;4.78;;
21330;SDS011;10824;51.632;4.950;2022-08-19T13:41:37;8.68;;;4.50;;
21330;SDS011;10824;51.632;4.950;2022-08-19T13:44:14;7.85;;;4.15;;
21330;SDS011;10824;51.632;4.950;2022-08-19T13:46:45;7.40;;;4.22;;
21330;SDS011;10824;51.632;4.950;2022-08-19T13:49:13;9.00;;;4.15;;
21330;SDS011;10824;51.632;4.950;2022-08-19T13:51:42;8.45;;;4.72;;
21330;SDS011;10824;51.632;4.950;2022-08-19T13:54:10;9.77;;;5.25;;
21330;SDS011;10824;51.632;4.950;2022-08-19T13:56:41;7.68;;;4.50;;
21330;SDS011;10824;51.632;4.950;2022-08-19T13:59:11;9.15;;;5.00;;
21330;SDS011;10824;51.632;4.950;2022-08-19T14:01:39;8.77;;;4.90;;
21330;SDS011;10824;51.632;4.950;2022-08-19T14:04:06;8.27;;;4.75;;
21330;SDS011;10824;51.632;4.950;2022-08-19T14:06:34;8.07;;;4.07;;
21330;SDS011;10824;51.632;4.950;2022-08-19T14:09:01;8.68;;;4.88;;
21330;SDS011;10824;51.632;4.950;2022-08-19T14:11:29;8.25;;;4.70;;
21330;SDS011;10824;51.632;4.950;2022-08-19T14:13:56;8.50;;;4.65;;
21330;SDS011;10824;51.632;4.950;2022-08-19T14:16:23;10.45;;;4.80;;
21330;SDS011;10824;51.632;4.950;2022-08-19T14:18:51;10.02;;;5.30;;
21330;SDS011;10824;51.632;4.950;2022-08-19T14:21:20;11.60;;;5.72;;
21330;SDS011;10824;51.632;4.950;2022-08-19T14:23:50;9.90;;;5.35;;
21330;SDS011;10824;51.632;4.950;2022-08-19T14:26:18;9.68;;;5.05;;
21330;SDS011;10824;51.632;4.950;2022-08-19T14:28:47;11.02;;;5.15;;
21330;SDS011;10824;51.632;4.950;2022-08-19T14:31:16;11.32;;;5.45;;
21330;SDS011;10824;51.632;4.950;2022-08-19T14:33:55;9.65;;;5.13;;
21330;SDS011;10824;51.632;4.950;2022-08-19T14:36:22;9.68;;;4.85;;
21330;SDS011;10824;51.632;4.950;2022-08-19T14:38:49;15.57;;;6.38;;
21330;SDS011;10824;51.632;4.950;2022-08-19T14:41:20;12.18;;;5.97;;
21330;SDS011;10824;51.632;4.950;2022-08-19T14:43:49;11.95;;;4.93;;
21330;SDS011;10824;51.632;4.950;2022-08-19T14:46:20;11.38;;;4.22;;
21330;SDS011;10824;51.632;4.950;2022-08-19T14:48:57;8.05;;;4.30;;
21330;SDS011;10824;51.632;4.950;2022-08-19T14:51:25;7.57;;;3.72;;
21330;SDS011;10824;51.632;4.950;2022-08-19T14:53:53;6.97;;;3.22;;
21330;SDS011;10824;51.632;4.950;2022-08-19T14:56:22;7.43;;;3.38;;
21330;SDS011;10824;51.632;4.950;2022-08-19T14:58:52;5.07;;;2.75;;
21330;SDS011;10824;51.632;4.950;2022-08-19T15:01:25;4.95;;;2.80;;
21330;SDS011;10824;51.632;4.950;2022-08-19T15:03:53;4.55;;;2.45;;
21330;SDS011;10824;51.632;4.950;2022-08-19T15:06:21;5.93;;;3.10;;
21330;SDS011;10824;51.632;4.950;2022-08-19T15:08:52;5.15;;;2.50;;
21330;SDS011;10824;51.632;4.950;2022-08-19T15:11:23;4.18;;;2.55;;
21330;SDS011;10824;51.632;4.950;2022-08-19T15:13:57;8.00;;;3.58;;